Time;durP1;ratioP1;P1;durP2;ratioP2;P2;SDS_P1;SDS_P2;PMS_P1;PMS_P2;Temp;Humidity;BMP_temperature;BMP_pressure;BME280_temperature;BME280_humidity;BME280_pressure;Samples;Min_cycle;Max_cycle;Signal;HPM_P1;HPM_P2
2021/05/06 00:34:03;;;;;;;3.53;1.67;;;8.00;84.50;;;;;;4986114;28;20192;-85
2021/05/06 00:36:28;;;;;;;4.50;1.60;;;8.00;84.60;;;;;;4969655;28;20415;-85
2021/05/06 00:38:58;;;;;;;3.17;1.50;;;8.10;85.10;;;;;;4971963;28;20194;-85
2021/05/06 01:05:13;;;;;;;2.95;1.60;;;8.10;84.20;;;;;;4988671;28;20230;-85
2021/05/06 01:07:56;;;;;;;7.30;1.67;;;8.10;83.70;;;;;;4970698;28;20179;-85
2021/05/06 01:13:01;;;;;;;3.40;1.95;;;8.20;83.90;;;;;;4989093;28;20216;-85
2021/05/06 01:15:27;;;;;;;4.45;1.45;;;8.20;83.80;;;;;;4971587;28;20196;-85
2021/05/06 01:17:53;;;;;;;2.20;1.45;;;8.20;83.50;;;;;;4971834;28;20219;-84
2021/05/06 01:20:19;;;;;;;2.90;1.60;;;8.20;83.90;;;;;;4971784;28;20172;-85
2021/05/06 01:22:45;;;;;;;2.40;1.60;;;8.20;83.70;;;;;;4971430;28;20427;-85
2021/05/06 01:25:12;;;;;;;4.40;1.93;;;8.30;83.40;;;;;;4971925;28;20188;-85
2021/05/06 01:27:55;;;;;;;2.50;1.85;;;8.20;84.40;;;;;;4971168;28;20445;-85
2021/05/06 01:30:45;;;;;;;3.15;1.40;;;8.20;84.50;;;;;;4971833;28;20195;-84
2021/05/06 01:36:03;;;;;;;6.97;2.00;;;8.10;84.80;;;;;;4989056;28;20179;-85
2021/05/06 01:44:17;;;;;;;5.93;2.88;;;8.00;84.50;;;;;;4988957;28;20198;-85
2021/05/06 02:00:12;;;;;;;5.70;2.00;;;8.10;84.80;;;;;;4988658;28;20191;-85
2021/05/06 02:02:38;;;;;;;3.08;1.83;;;8.00;85.30;;;;;;4971479;28;20172;-84
2021/05/06 02:05:05;;;;;;;6.00;1.90;;;8.00;85.60;;;;;;4971052;28;20259;-84
2021/05/06 02:07:31;;;;;;;10.48;2.55;;;8.00;85.90;;;;;;4971491;28;20182;-85
2021/05/06 02:09:57;;;;;;;5.18;4.53;;;8.10;85.50;;;;;;4971615;28;20216;-84
2021/05/06 02:12:23;;;;;;;3.73;1.70;;;8.20;85.20;;;;;;4971248;28;20174;-85
2021/05/06 02:15:00;;;;;;;3.75;2.30;;;8.20;84.60;;;;;;4971368;28;20459;-85
2021/05/06 02:17:26;;;;;;;7.40;1.48;;;8.20;84.80;;;;;;4971354;28;20155;-84
2021/05/06 02:19:52;;;;;;;4.47;2.07;;;8.20;84.60;;;;;;4970925;28;20176;-84
2021/05/06 02:22:19;;;;;;;4.20;1.57;;;8.20;84.40;;;;;;4970591;28;20187;-85
2021/05/06 02:24:46;;;;;;;7.50;1.80;;;8.20;83.90;;;;;;4969889;28;20208;-84
2021/05/06 02:27:12;;;;;;;4.45;2.70;;;8.20;84.40;;;;;;4969706;28;20180;-85
2021/05/06 02:29:38;;;;;;;6.72;1.90;;;8.20;84.50;;;;;;4970455;28;20211;-84
2021/05/06 02:32:05;;;;;;;13.38;2.00;;;8.30;84.40;;;;;;4971234;28;20172;-85
2021/05/06 02:34:30;;;;;;;6.00;3.03;;;8.30;84.20;;;;;;4970978;28;20555;-84
2021/05/06 02:36:56;;;;;;;7.80;2.20;;;8.40;83.10;;;;;;4970634;28;20172;-84
2021/05/06 02:39:22;;;;;;;2.63;2.10;;;8.40;82.60;;;;;;4971512;28;20420;-85
2021/05/06 02:41:48;;;;;;;5.47;1.98;;;8.40;82.80;;;;;;4971675;28;20416;-84
2021/05/06 02:44:14;;;;;;;8.03;2.53;;;8.30;82.60;;;;;;4970684;28;20211;-84
2021/05/06 02:46:40;;;;;;;5.13;3.38;;;8.30;82.80;;;;;;4971180;28;20416;-84
2021/05/06 02:49:06;;;;;;;5.20;2.10;;;8.20;82.70;;;;;;4971395;28;20206;-84
2021/05/06 02:51:36;;;;;;;6.82;2.88;;;8.20;83.70;;;;;;4971570;28;20191;-84
2021/05/06 02:54:03;;;;;;;6.55;1.60;;;8.20;83.50;;;;;;4972168;28;20219;-84
2021/05/06 03:04:44;;;;;;;6.05;2.35;;;8.20;85.20;;;;;;4989045;28;20203;-85
2021/05/06 03:07:11;;;;;;;7.22;1.85;;;8.20;84.40;;;;;;4970418;28;20176;-85
2021/05/06 03:12:19;;;;;;;4.05;2.00;;;8.10;85.90;;;;;;4988237;28;20586;-82
2021/05/06 03:15:10;;;;;;;11.82;2.13;;;8.10;85.60;;;;;;4970784;28;20223;-85
2021/05/06 03:23:04;;;;;;;5.43;2.03;;;8.10;83.90;;;;;;4988459;28;20195;-84
2021/05/06 03:25:31;;;;;;;3.60;2.05;;;8.10;84.60;;;;;;4970822;28;20567;-84
2021/05/06 03:34:39;;;;;;;4.72;1.95;;;8.00;86.30;;;;;;4990179;28;20415;-84
2021/05/06 04:16:19;;;;;;;3.47;2.28;;;7.40;93.90;;;;;;4989474;28;20211;-86
2021/05/06 04:19:12;;;;;;;3.17;2.15;;;7.50;93.80;;;;;;4971612;28;20195;-86
2021/05/06 04:30:06;;;;;;;4.65;2.00;;;7.60;94.00;;;;;;4988444;28;20214;-86
2021/05/06 04:37:48;;;;;;;5.25;2.05;;;7.60;94.90;;;;;;4988899;28;20213;-86
2021/05/06 04:43:58;;;;;;;10.52;2.50;;;7.60;94.90;;;;;;4986822;28;20213;-86
2021/05/06 04:54:43;;;;;;;2.40;2.00;;;7.70;94.40;;;;;;4963942;28;20717;-86
2021/05/06 05:05:19;;;;;;;5.95;2.90;;;7.90;94.30;;;;;;4987851;28;20230;-83
2021/05/06 05:07:49;;;;;;;4.32;2.53;;;7.90;93.60;;;;;;4970237;28;20176;-86
2021/05/06 05:23:52;;;;;;;6.63;3.20;;;8.00;94.00;;;;;;4987490;28;20183;-86
2021/05/06 05:26:18;;;;;;;8.55;2.83;;;8.10;94.00;;;;;;4973412;28;20225;-84
2021/05/06 05:28:44;;;;;;;6.95;2.75;;;8.10;93.80;;;;;;4974712;28;20225;-86
2021/05/06 05:31:10;;;;;;;3.50;2.15;;;8.10;92.90;;;;;;4974900;28;20716;-84
2021/05/06 05:34:06;;;;;;;9.63;3.67;;;8.10;93.30;;;;;;4972780;28;20176;-85
2021/05/06 05:36:24;;;;;;;5.30;2.60;;;8.10;93.50;;;;;;4987937;28;20184;-86
2021/05/06 05:39:15;;;;;;;4.80;3.42;;;8.10;93.30;;;;;;4971605;28;20279;-86
2021/05/06 05:42:00;;;;;;;4.82;2.67;;;8.20;93.40;;;;;;4971960;28;20176;-85
2021/05/06 05:54:51;;;;;;;3.60;2.58;;;8.50;93.40;;;;;;4988142;28;20222;-86
2021/05/06 05:57:17;;;;;;;7.47;3.60;;;8.50;93.20;;;;;;4972274;28;20168;-85
2021/05/06 05:59:43;;;;;;;10.18;2.42;;;8.40;92.90;;;;;;4973371;28;20244;-86
2021/05/06 06:02:09;;;;;;;5.23;3.17;;;8.40;92.70;;;;;;4972830;28;20176;-86
2021/05/06 06:04:35;;;;;;;12.30;3.25;;;8.40;92.70;;;;;;4971663;28;20226;-85
2021/05/06 06:07:01;;;;;;;6.22;2.65;;;8.40;92.90;;;;;;4972373;28;20198;-87
2021/05/06 06:09:27;;;;;;;7.53;3.13;;;8.40;92.40;;;;;;4972082;28;20203;-85
2021/05/06 06:11:53;;;;;;;7.15;3.10;;;8.40;92.60;;;;;;5054355;22;21181;-84
2021/05/06 06:14:28;;;;;;;7.63;3.30;;;8.40;92.70;;;;;;5000279;28;20201;-85
2021/05/06 06:16:55;;;;;;;4.97;2.70;;;8.40;92.10;;;;;;5000082;28;20413;-84
2021/05/06 06:19:24;;;;;;;10.70;2.55;;;8.40;91.60;;;;;;5000990;28;20185;-84
2021/05/06 06:21:53;;;;;;;4.90;2.22;;;8.40;92.30;;;;;;5001632;28;20705;-85
2021/05/06 06:24:19;;;;;;;4.63;2.95;;;8.50;91.30;;;;;;5000435;28;20221;-85
2021/05/06 06:26:46;;;;;;;5.00;2.88;;;8.50;91.60;;;;;;5001061;28;20179;-84
2021/05/06 06:29:16;;;;;;;6.05;2.72;;;8.50;92.10;;;;;;5000902;28;20198;-85
2021/05/06 06:31:45;;;;;;;3.88;2.70;;;8.60;90.70;;;;;;4999640;28;20638;-85
2021/05/06 06:34:12;;;;;;;4.90;3.03;;;8.60;90.20;;;;;;4999290;28;20201;-84
2021/05/06 06:36:44;;;;;;;4.43;2.15;;;8.60;90.50;;;;;;5001028;28;20174;-84
2021/05/06 06:39:15;;;;;;;4.65;2.40;;;8.60;90.90;;;;;;4999169;28;20258;-85
2021/05/06 06:41:42;;;;;;;7.22;3.15;;;8.70;91.40;;;;;;4998794;28;20271;-81
2021/05/06 06:44:28;;;;;;;7.25;2.85;;;8.70;90.20;;;;;;4999645;28;20244;-82
2021/05/06 06:47:01;;;;;;;6.25;2.20;;;8.80;91.00;;;;;;4998023;28;20645;-80
2021/05/06 06:49:32;;;;;;;8.65;2.80;;;8.80;91.80;;;;;;4998827;28;20255;-80
2021/05/06 06:51:59;;;;;;;10.93;2.60;;;8.80;90.70;;;;;;4998039;28;20170;-81
2021/05/06 06:54:26;;;;;;;3.97;1.92;;;8.90;91.20;;;;;;4998217;28;20261;-81
2021/05/06 06:56:51;;;;;;;7.55;2.55;;;8.90;90.40;;;;;;4998515;28;20174;-81
2021/05/06 06:59:17;;;;;;;4.47;2.13;;;8.90;90.50;;;;;;4997973;28;20171;-81
2021/05/06 07:01:43;;;;;;;7.20;2.63;;;8.90;90.80;;;;;;4998715;28;20939;-81
2021/05/06 07:04:10;;;;;;;5.22;2.47;;;8.90;89.40;;;;;;4998448;28;20441;-81
2021/05/06 07:06:36;;;;;;;10.27;2.90;;;9.00;90.10;;;;;;4998149;28;20265;-81
2021/05/06 07:09:03;;;;;;;6.97;3.05;;;9.00;90.40;;;;;;5016060;28;20190;-81
2021/05/06 07:11:28;;;;;;;7.80;2.88;;;9.00;90.30;;;;;;4998242;28;20684;-79
2021/05/06 07:13:54;;;;;;;8.60;2.33;;;9.10;89.80;;;;;;4998786;28;20198;-82
2021/05/06 07:16:20;;;;;;;5.50;2.20;;;9.20;88.10;;;;;;4999270;28;20231;-83
2021/05/06 07:18:46;;;;;;;9.20;2.60;;;9.20;87.40;;;;;;4997614;28;20551;-80
2021/05/06 07:21:12;;;;;;;8.50;3.20;;;9.20;87.40;;;;;;4998243;28;20185;-80
2021/05/06 07:23:38;;;;;;;4.93;2.17;;;9.20;87.60;;;;;;4998214;28;20450;-80
2021/05/06 07:26:04;;;;;;;7.83;2.47;;;9.20;87.40;;;;;;4998442;28;20433;-83
2021/05/06 07:28:40;;;;;;;10.02;2.75;;;9.30;88.50;;;;;;4998510;28;20221;-83
2021/05/06 07:31:08;;;;;;;7.50;2.75;;;9.40;86.90;;;;;;4998491;28;20163;-83
2021/05/06 07:33:34;;;;;;;4.18;2.33;;;9.40;87.00;;;;;;4998519;28;20634;-83
2021/05/06 07:36:01;;;;;;;10.77;3.08;;;9.50;87.10;;;;;;4998465;28;20175;-83
2021/05/06 07:38:29;;;;;;;6.10;2.58;;;9.60;87.30;;;;;;4999075;28;20198;-82
2021/05/06 07:40:57;;;;;;;10.93;2.85;;;9.60;84.80;;;;;;4998136;28;20235;-83
2021/05/06 07:43:23;;;;;;;6.35;2.80;;;9.60;86.40;;;;;;4998581;28;20582;-82
2021/05/06 07:45:49;;;;;;;6.55;3.28;;;9.70;85.20;;;;;;4997218;28;20226;-82
2021/05/06 07:48:15;;;;;;;12.43;2.80;;;9.80;84.60;;;;;;4998113;28;20658;-83
2021/05/06 07:50:41;;;;;;;10.00;2.65;;;9.90;83.80;;;;;;4998633;28;20476;-82
2021/05/06 07:53:10;;;;;;;6.68;2.33;;;10.00;84.10;;;;;;4998151;28;20177;-83
2021/05/06 07:55:36;;;;;;;12.80;3.28;;;10.20;83.00;;;;;;4997540;28;20191;-83
2021/05/06 07:58:05;;;;;;;6.97;2.40;;;10.30;81.40;;;;;;4997818;28;20181;-83
2021/05/06 08:00:35;;;;;;;9.18;3.20;;;10.40;79.20;;;;;;5001082;28;20178;-83
2021/05/06 08:03:02;;;;;;;7.28;2.22;;;10.50;78.80;;;;;;4998544;28;20179;-83
2021/05/06 08:05:28;;;;;;;4.32;2.10;;;10.50;78.70;;;;;;4997448;28;20202;-83
2021/05/06 08:07:54;;;;;;;3.93;2.40;;;10.60;79.50;;;;;;4997909;28;20182;-83
2021/05/06 08:10:22;;;;;;;4.17;2.00;;;10.70;78.30;;;;;;4997425;28;20456;-83
2021/05/06 08:12:48;;;;;;;4.65;1.90;;;10.70;77.10;;;;;;4998033;28;20429;-83
2021/05/06 08:15:14;;;;;;;7.88;2.25;;;10.80;78.00;;;;;;5001119;28;20274;-83
2021/05/06 08:17:45;;;;;;;4.95;2.08;;;11.00;77.30;;;;;;4999020;28;20702;-83
2021/05/06 08:20:13;;;;;;;12.73;5.93;;;11.00;77.40;;;;;;5000338;28;20177;-83
2021/05/06 08:22:40;;;;;;;10.40;3.97;;;11.10;75.60;;;;;;4997682;28;20186;-84
2021/05/06 08:25:08;;;;;;;8.60;2.30;;;11.10;75.50;;;;;;5000973;28;20201;-82
2021/05/06 08:27:34;;;;;;;7.70;2.40;;;11.10;74.20;;;;;;4997697;28;20186;-85
2021/05/06 08:30:01;;;;;;;10.60;3.72;;;11.00;75.60;;;;;;4996819;28;20203;-85
2021/05/06 08:32:27;;;;;;;8.38;3.40;;;11.10;76.60;;;;;;4997286;28;20217;-85
2021/05/06 08:34:53;;;;;;;7.38;2.92;;;11.10;75.80;;;;;;4996542;28;20228;-85
2021/05/06 08:37:19;;;;;;;7.78;3.03;;;11.20;76.60;;;;;;4996805;28;20182;-85
2021/05/06 08:39:45;;;;;;;9.80;2.53;;;11.30;78.50;;;;;;4996965;28;20175;-83
2021/05/06 08:42:13;;;;;;;6.85;3.30;;;11.30;75.90;;;;;;4998203;28;20409;-83
2021/05/06 08:44:41;;;;;;;14.38;2.67;;;11.50;74.90;;;;;;4997477;28;20201;-83
2021/05/06 08:47:12;;;;;;;8.40;3.15;;;11.60;74.80;;;;;;4997907;28;20178;-80
2021/05/06 08:49:39;;;;;;;6.22;3.95;;;11.70;74.50;;;;;;4996983;28;20224;-81
2021/05/06 08:52:07;;;;;;;8.02;2.85;;;11.80;73.50;;;;;;4996991;28;20177;-85
2021/05/06 08:54:41;;;;;;;9.15;3.15;;;11.80;73.70;;;;;;4996730;28;20234;-85
2021/05/06 08:57:07;;;;;;;8.52;3.10;;;11.90;74.40;;;;;;4996046;28;20179;-85
2021/05/06 08:59:33;;;;;;;10.13;2.60;;;12.00;73.00;;;;;;5001154;28;20186;-86
2021/05/06 09:01:59;;;;;;;7.45;2.30;;;12.00;72.60;;;;;;4998694;28;20424;-86
2021/05/06 09:04:26;;;;;;;5.63;2.63;;;11.80;71.60;;;;;;4999295;28;20190;-86
2021/05/06 09:07:00;;;;;;;6.18;2.33;;;11.80;73.10;;;;;;4999017;28;20417;-85
2021/05/06 09:09:36;;;;;;;10.52;2.58;;;11.90;75.90;;;;;;4999831;28;20280;-85
2021/05/06 09:12:06;;;;;;;5.10;2.20;;;11.90;75.10;;;;;;5000728;28;20188;-83
2021/05/06 09:14:43;;;;;;;10.43;1.80;;;11.90;74.20;;;;;;5000795;28;20205;-83
2021/05/06 09:17:29;;;;;;;5.68;2.30;;;11.70;72.70;;;;;;5000553;28;20175;-83
2021/05/06 09:20:14;;;;;;;6.25;2.20;;;11.70;72.80;;;;;;5002384;28;20220;-83
2021/05/06 09:22:47;;;;;;;7.90;2.95;;;11.70;74.10;;;;;;5001730;28;20166;-84
2021/05/06 09:25:38;;;;;;;7.18;2.25;;;11.80;73.80;;;;;;5001386;28;20620;-83
2021/05/06 09:28:08;;;;;;;3.63;2.80;;;11.80;73.50;;;;;;5001470;28;20175;-83
2021/05/06 09:30:52;;;;;;;19.08;2.90;;;11.70;74.60;;;;;;5003736;28;20171;-84
2021/05/06 09:33:30;;;;;;;8.25;3.00;;;11.60;74.50;;;;;;5001613;28;20166;-84
2021/05/06 09:35:56;;;;;;;10.57;3.28;;;11.60;76.20;;;;;;5002027;28;20178;-83
2021/05/06 09:38:26;;;;;;;7.20;3.80;;;11.60;76.20;;;;;;5002307;28;20317;-83
2021/05/06 09:40:53;;;;;;;8.75;3.25;;;11.60;79.80;;;;;;5001802;28;20209;-83
2021/05/06 09:43:40;;;;;;;5.28;2.25;;;11.60;77.30;;;;;;5001284;28;20200;-84
2021/05/06 09:46:25;;;;;;;5.72;2.40;;;11.70;78.90;;;;;;5001058;28;20178;-83
2021/05/06 09:49:05;;;;;;;7.07;2.55;;;11.70;81.90;;;;;;5000784;28;20198;-83
2021/05/06 09:51:45;;;;;;;7.50;2.70;;;11.70;83.30;;;;;;5001487;28;20167;-83
2021/05/06 09:54:14;;;;;;;4.93;2.17;;;11.70;83.70;;;;;;5001012;28;20222;-84
2021/05/06 09:56:42;;;;;;;5.40;2.65;;;11.70;83.40;;;;;;5000981;28;20175;-83
2021/05/06 09:59:09;;;;;;;11.13;3.65;;;11.70;82.40;;;;;;5000819;28;20207;-83
2021/05/06 10:01:40;;;;;;;9.73;2.70;;;11.70;82.70;;;;;;5001070;28;20182;-83
2021/05/06 10:04:20;;;;;;;11.80;3.10;;;11.70;84.20;;;;;;5004077;28;20195;-83
2021/05/06 10:07:14;;;;;;;6.63;3.10;;;11.70;83.80;;;;;;4999897;28;20181;-83
2021/05/06 10:09:58;;;;;;;15.63;4.45;;;11.60;84.80;;;;;;4999583;28;20285;-83
2021/05/06 10:12:26;;;;;;;8.45;3.10;;;11.60;86.00;;;;;;4998902;28;20194;-84
2021/05/06 10:14:53;;;;;;;7.30;3.05;;;11.60;85.30;;;;;;5002080;27;20195;-83
2021/05/06 10:17:20;;;;;;;11.75;3.70;;;11.60;86.20;;;;;;5019729;27;20212;-83
2021/05/06 10:19:46;;;;;;;7.15;3.28;;;11.70;84.90;;;;;;4999579;28;20170;-83
2021/05/06 10:22:15;;;;;;;8.63;3.72;;;11.70;84.40;;;;;;4999785;28;20166;-84
2021/05/06 10:24:42;;;;;;;8.75;2.90;;;11.70;84.20;;;;;;4998586;28;20281;-83
2021/05/06 10:27:15;;;;;;;11.57;3.47;;;11.70;84.60;;;;;;4999322;28;20189;-83
2021/05/06 10:29:42;;;;;;;7.85;3.88;;;11.70;84.50;;;;;;5001970;28;20198;-83
2021/05/06 10:32:13;;;;;;;9.98;3.00;;;11.70;84.50;;;;;;4999203;28;20202;-83
2021/05/06 10:34:40;;;;;;;11.60;3.53;;;11.70;84.90;;;;;;4998871;28;20553;-84
2021/05/06 10:37:06;;;;;;;13.05;3.03;;;11.60;84.40;;;;;;4998931;28;20261;-83
2021/05/06 10:39:42;;;;;;;15.07;2.90;;;11.60;84.50;;;;;;4999111;28;20204;-83
2021/05/06 10:42:26;;;;;;;4.80;2.55;;;11.50;84.20;;;;;;4999197;28;20276;-82
2021/05/06 10:44:57;;;;;;;7.15;2.10;;;11.50;82.10;;;;;;4999342;28;20199;-84
2021/05/06 10:47:50;;;;;;;6.53;2.33;;;11.30;82.80;;;;;;4999147;28;20549;-83
2021/05/06 10:50:34;;;;;;;3.35;1.95;;;11.30;83.00;;;;;;5001473;28;20210;-83
2021/05/06 10:53:01;;;;;;;5.28;1.50;;;11.30;82.60;;;;;;5000535;28;20167;-83
2021/05/06 10:55:43;;;;;;;7.90;2.28;;;11.20;83.80;;;;;;5001052;28;20213;-84
2021/05/06 10:58:28;;;;;;;5.30;1.75;;;11.30;84.20;;;;;;5000199;28;20180;-83
2021/05/06 11:01:08;;;;;;;4.15;2.40;;;11.30;81.40;;;;;;4999648;28;20170;-84
2021/05/06 11:03:34;;;;;;;3.20;1.65;;;11.30;81.60;;;;;;4999153;28;20167;-83
2021/05/06 11:06:00;;;;;;;11.63;2.78;;;11.40;81.70;;;;;;4999542;28;20166;-83
2021/05/06 11:08:31;;;;;;;4.10;1.70;;;11.50;82.30;;;;;;4998562;28;20181;-84
2021/05/06 11:10:57;;;;;;;7.75;2.58;;;11.60;79.60;;;;;;4999582;28;20623;-83
2021/05/06 11:13:28;;;;;;;2.90;1.70;;;11.70;80.20;;;;;;4998978;28;20169;-83
2021/05/06 11:16:17;;;;;;;2.85;1.60;;;11.60;78.40;;;;;;4997507;28;20489;-83
2021/05/06 11:18:44;;;;;;;2.95;1.35;;;11.60;79.80;;;;;;4997363;28;20590;-83
2021/05/06 11:21:34;;;;;;;10.85;3.25;;;11.60;79.80;;;;;;4997178;28;20174;-84
2021/05/06 11:24:16;;;;;;;3.97;1.80;;;11.70;79.50;;;;;;4998166;28;20613;-83
2021/05/06 11:27:08;;;;;;;3.30;1.50;;;11.70;81.20;;;;;;4998711;28;20182;-83
2021/05/06 11:29:37;;;;;;;2.88;1.60;;;11.70;79.50;;;;;;4998872;28;20278;-84
2021/05/06 11:32:03;;;;;;;13.25;1.67;;;11.80;80.50;;;;;;4998495;28;20193;-84
2021/05/06 11:34:37;;;;;;;2.30;1.45;;;11.80;77.80;;;;;;4998152;28;20558;-83
2021/05/06 11:37:14;;;;;;;3.63;1.63;;;11.90;79.50;;;;;;4998605;28;20698;-84
2021/05/06 11:39:58;;;;;;;3.45;1.63;;;11.90;78.00;;;;;;4998583;28;20186;-84
2021/05/06 11:42:26;;;;;;;4.25;2.33;;;12.00;78.40;;;;;;4998211;28;20657;-83
2021/05/06 11:45:08;;;;;;;4.40;2.08;;;12.00;77.00;;;;;;4999805;28;20693;-85
2021/05/06 11:47:34;;;;;;;2.17;1.25;;;12.00;77.40;;;;;;4998950;28;20231;-84
2021/05/06 11:50:13;;;;;;;7.03;1.90;;;12.10;77.70;;;;;;4997770;28;20191;-85
2021/05/06 11:52:38;;;;;;;4.65;1.30;;;12.20;78.90;;;;;;4997285;28;20162;-85
2021/05/06 11:55:05;;;;;;;5.13;2.10;;;12.20;77.40;;;;;;4996889;28;20247;-85
2021/05/06 11:57:30;;;;;;;1.92;1.45;;;12.30;77.30;;;;;;4996329;28;20171;-85
2021/05/06 11:59:56;;;;;;;2.17;1.40;;;12.20;76.60;;;;;;4996469;28;20316;-85
2021/05/06 12:02:25;;;;;;;6.80;1.90;;;12.30;75.60;;;;;;4996440;28;20186;-85
2021/05/06 12:04:54;;;;;;;2.72;1.50;;;12.30;75.10;;;;;;4997338;28;20202;-85
2021/05/06 12:07:22;;;;;;;2.92;1.38;;;12.40;76.00;;;;;;4997808;28;20238;-85
2021/05/06 12:09:49;;;;;;;2.00;1.15;;;12.40;74.80;;;;;;4997211;28;20195;-85
2021/05/06 12:12:26;;;;;;;1.95;1.00;;;12.50;74.60;;;;;;4997515;28;20186;-81
2021/05/06 12:14:58;;;;;;;1.50;1.00;;;12.50;73.10;;;;;;4998264;28;20190;-81
2021/05/06 12:17:24;;;;;;;1.92;1.30;;;12.40;73.70;;;;;;4998526;28;20166;-81
2021/05/06 12:19:50;;;;;;;2.13;1.23;;;12.40;73.90;;;;;;4997934;28;20550;-81
2021/05/06 12:22:17;;;;;;;0.95;0.88;;;12.40;73.90;;;;;;4997391;28;20171;-81
2021/05/06 12:24:45;;;;;;;3.08;1.27;;;12.40;73.70;;;;;;4997803;28;20194;-81
2021/05/06 12:27:20;;;;;;;1.58;1.27;;;12.40;74.60;;;;;;4997535;28;20178;-81
2021/05/06 12:29:48;;;;;;;1.85;1.27;;;12.40;73.70;;;;;;4997760;28;20228;-80
2021/05/06 12:32:17;;;;;;;3.92;1.20;;;12.40;75.10;;;;;;4996668;28;20178;-81
2021/05/06 12:34:43;;;;;;;4.35;1.25;;;12.40;73.70;;;;;;4997499;28;20190;-81
2021/05/06 12:37:09;;;;;;;1.67;1.23;;;12.50;74.80;;;;;;4998048;28;20209;-80
2021/05/06 12:39:35;;;;;;;1.27;1.15;;;12.50;76.30;;;;;;4998555;28;20171;-81
2021/05/06 12:42:05;;;;;;;2.90;1.17;;;12.60;77.80;;;;;;4997379;28;20206;-79
2021/05/06 12:44:39;;;;;;;3.60;1.40;;;12.60;76.60;;;;;;4996768;28;20195;-81
2021/05/06 12:47:16;;;;;;;3.03;1.60;;;12.70;80.10;;;;;;4997616;28;20522;-81
2021/05/06 12:49:43;;;;;;;2.03;1.20;;;12.70;82.00;;;;;;4996995;28;20205;-81
2021/05/06 12:52:28;;;;;;;6.65;1.92;;;12.60;81.90;;;;;;4996456;28;20201;-80
2021/05/06 12:54:54;;;;;;;1.50;1.33;;;12.60;81.00;;;;;;4995663;28;20194;-80
2021/05/06 12:57:22;;;;;;;1.93;1.50;;;12.60;82.60;;;;;;4996540;28;20542;-82
2021/05/06 12:59:50;;;;;;;35.05;14.30;;;12.50;85.30;;;;;;4997193;28;20432;-81
2021/05/06 13:02:18;;;;;;;5.47;2.58;;;12.50;83.90;;;;;;4997052;28;20646;-81
2021/05/06 13:04:52;;;;;;;3.88;2.15;;;12.50;86.00;;;;;;4996217;28;20199;-81
2021/05/06 13:07:20;;;;;;;8.43;4.95;;;12.50;86.30;;;;;;4997164;28;20174;-81
2021/05/06 13:09:49;;;;;;;5.68;3.30;;;12.50;86.60;;;;;;4996700;28;20222;-81
2021/05/06 13:12:19;;;;;;;2.08;1.50;;;12.50;88.70;;;;;;4996335;28;20212;-81
2021/05/06 13:14:51;;;;;;;2.33;1.58;;;12.50;86.40;;;;;;4996094;28;20654;-80
2021/05/06 13:17:43;;;;;;;4.00;1.98;;;12.40;85.60;;;;;;4996060;28;20167;-81
2021/05/06 13:20:27;;;;;;;2.75;1.80;;;12.30;86.30;;;;;;4996857;28;20273;-81
2021/05/06 13:23:09;;;;;;;1.77;1.30;;;12.30;89.20;;;;;;4996068;28;20175;-81
2021/05/06 13:25:53;;;;;;;6.50;1.40;;;12.30;89.50;;;;;;4996322;28;20194;-81
2021/05/06 13:28:40;;;;;;;6.15;1.70;;;12.10;86.70;;;;;;4994523;28;20175;-81
2021/05/06 13:31:12;;;;;;;3.38;1.70;;;12.00;85.60;;;;;;4994337;28;20163;-81
2021/05/06 13:33:40;;;;;;;4.00;2.28;;;12.00;90.10;;;;;;4995935;28;20179;-81
2021/05/06 13:36:14;;;;;;;1.90;1.55;;;11.90;91.00;;;;;;4995813;28;20170;-81
2021/05/06 13:39:00;;;;;;;3.25;2.20;;;11.90;90.10;;;;;;4995974;28;20174;-81
2021/05/06 13:41:30;;;;;;;2.78;1.75;;;11.80;91.80;;;;;;4996673;28;20224;-81
2021/05/06 13:43:58;;;;;;;5.18;1.60;;;11.70;91.40;;;;;;4995945;28;20206;-81
2021/05/06 13:46:26;;;;;;;4.80;2.45;;;11.60;92.50;;;;;;4998692;28;20202;-81
2021/05/06 13:48:52;;;;;;;2.95;1.80;;;11.50;93.30;;;;;;4998927;28;20259;-81
2021/05/06 13:51:21;;;;;;;3.55;2.28;;;11.50;93.90;;;;;;4998664;28;20193;-81
2021/05/06 13:53:48;;;;;;;6.05;2.20;;;11.60;93.90;;;;;;4999475;28;20171;-81
2021/05/06 13:56:14;;;;;;;2.15;1.70;;;11.60;94.40;;;;;;4997796;28;20304;-81
2021/05/06 13:58:41;;;;;;;1.90;1.60;;;11.60;94.50;;;;;;4998609;28;20271;-81
2021/05/06 14:01:10;;;;;;;6.65;2.33;;;11.50;94.50;;;;;;4998045;28;20189;-81
2021/05/06 14:03:36;;;;;;;11.82;3.30;;;11.50;94.10;;;;;;4998361;28;20196;-81
2021/05/06 14:06:06;;;;;;;10.70;4.00;;;11.50;95.50;;;;;;4998365;28;20254;-81
2021/05/06 14:08:32;;;;;;;10.38;4.22;;;11.50;94.70;;;;;;4999561;28;20189;-82
2021/05/06 14:10:59;;;;;;;11.48;4.45;;;11.50;95.70;;;;;;4998600;28;20174;-82
2021/05/06 14:13:25;;;;;;;11.38;4.38;;;11.50;96.20;;;;;;4997876;28;20605;-82
2021/05/06 14:15:52;;;;;;;9.32;3.40;;;11.50;96.50;;;;;;4998340;28;20281;-80
2021/05/06 14:18:18;;;;;;;7.00;3.40;;;11.40;96.80;;;;;;4999542;28;20175;-83
2021/05/06 14:20:45;;;;;;;10.65;4.50;;;11.50;96.40;;;;;;4999630;28;20205;-83
2021/05/06 14:23:12;;;;;;;15.13;3.75;;;11.40;96.40;;;;;;4999852;28;20182;-82
2021/05/06 14:25:38;;;;;;;11.80;3.28;;;11.50;95.70;;;;;;4998895;28;20566;-82
2021/05/06 14:28:05;;;;;;;6.55;2.20;;;11.40;95.60;;;;;;4998635;28;20167;-82
2021/05/06 14:30:31;;;;;;;6.05;2.70;;;11.30;95.30;;;;;;4999619;28;20206;-82
2021/05/06 14:32:58;;;;;;;6.25;3.10;;;11.30;96.10;;;;;;4999479;28;20722;-82
2021/05/06 14:35:24;;;;;;;5.13;2.30;;;11.30;95.40;;;;;;4998757;28;20237;-82
2021/05/06 14:37:50;;;;;;;10.48;2.20;;;11.30;95.00;;;;;;4999641;28;20577;-82
2021/05/06 14:40:16;;;;;;;1.75;1.48;;;11.30;95.40;;;;;;4999794;28;20270;-82
2021/05/06 14:42:42;;;;;;;3.88;2.00;;;11.20;95.00;;;;;;4999092;28;20217;-82
2021/05/06 14:45:09;;;;;;;2.15;1.35;;;11.10;95.90;;;;;;5001412;28;20194;-83
2021/05/06 14:47:39;;;;;;;4.20;1.75;;;11.00;95.20;;;;;;5000666;28;20175;-82
2021/05/06 14:50:07;;;;;;;3.40;1.42;;;10.90;96.10;;;;;;4999563;28;20186;-82
2021/05/06 14:52:33;;;;;;;1.55;1.20;;;10.80;96.20;;;;;;4998478;28;20215;-82
2021/05/06 14:54:59;;;;;;;1.40;1.27;;;10.80;96.70;;;;;;4997614;28;20676;-84
2021/05/06 14:57:25;;;;;;;2.43;1.60;;;10.80;96.20;;;;;;4997105;28;20261;-85
2021/05/06 14:59:51;;;;;;;4.20;2.20;;;10.80;96.70;;;;;;4997132;28;20426;-84
2021/05/06 15:02:17;;;;;;;1.93;1.40;;;10.80;96.70;;;;;;4998674;28;20171;-84
2021/05/06 15:04:43;;;;;;;1.90;1.50;;;10.80;96.90;;;;;;5000171;28;20199;-84
2021/05/06 15:07:08;;;;;;;2.50;1.33;;;10.80;97.20;;;;;;4999675;28;20182;-84
2021/05/06 15:09:34;;;;;;;2.50;1.73;;;10.80;97.40;;;;;;4999296;28;20536;-83
2021/05/06 15:12:00;;;;;;;4.20;2.00;;;10.80;98.20;;;;;;4998852;28;20661;-84
2021/05/06 15:14:27;;;;;;;7.67;2.07;;;10.90;98.60;;;;;;4999360;28;20433;-83
2021/05/06 15:16:52;;;;;;;8.43;4.20;;;10.90;98.60;;;;;;4998756;28;20409;-84
2021/05/06 15:19:19;;;;;;;4.57;2.20;;;10.90;98.00;;;;;;5005110;28;20250;-84
2021/05/06 15:21:45;;;;;;;3.05;1.75;;;11.00;98.20;;;;;;4984107;28;20194;-83
2021/05/06 15:24:12;;;;;;;3.35;1.52;;;11.10;98.30;;;;;;4979064;28;20558;-84
2021/05/06 15:26:38;;;;;;;6.45;1.58;;;11.10;98.00;;;;;;4978414;28;20179;-84
2021/05/06 15:29:04;;;;;;;5.80;1.83;;;11.20;97.30;;;;;;4978745;28;20199;-85
2021/05/06 15:31:36;;;;;;;3.10;1.80;;;11.20;97.10;;;;;;5013018;28;20409;-84
2021/05/06 15:34:03;;;;;;;1.90;1.52;;;11.20;97.50;;;;;;5056881;28;20726;-85
2021/05/06 15:36:30;;;;;;;3.13;1.60;;;11.20;97.30;;;;;;4995506;28;20201;-84
2021/05/06 15:39:00;;;;;;;4.43;2.10;;;11.20;97.20;;;;;;4995210;28;20185;-84
2021/05/06 15:41:26;;;;;;;5.75;2.55;;;11.20;97.40;;;;;;4995461;28;20545;-84
2021/05/06 15:43:52;;;;;;;3.35;2.90;;;11.20;97.60;;;;;;4995057;28;20259;-85
2021/05/06 15:46:18;;;;;;;5.55;1.83;;;11.30;98.00;;;;;;4995644;28;20179;-85
2021/05/06 15:48:45;;;;;;;2.22;1.90;;;11.30;97.90;;;;;;4995323;28;20202;-85
2021/05/06 15:51:11;;;;;;;4.80;2.83;;;11.20;97.60;;;;;;4995386;28;20171;-85
2021/05/06 15:53:37;;;;;;;4.93;2.25;;;11.20;98.10;;;;;;4996280;28;20654;-85
2021/05/06 15:56:05;;;;;;;5.27;2.40;;;11.10;98.10;;;;;;4997145;28;20178;-85
2021/05/06 15:58:33;;;;;;;5.82;2.67;;;11.10;98.70;;;;;;5003669;28;20833;-83
2021/05/06 16:01:00;;;;;;;4.78;2.15;;;11.00;98.70;;;;;;5017660;28;20170;-84
2021/05/06 16:03:28;;;;;;;4.18;2.47;;;10.80;99.00;;;;;;5015123;28;20586;-85
2021/05/06 16:06:11;;;;;;;5.93;1.63;;;10.80;99.10;;;;;;5011081;28;20190;-85
2021/05/06 16:08:37;;;;;;;2.55;1.83;;;10.70;98.60;;;;;;4993596;28;20258;-85
2021/05/06 16:11:03;;;;;;;3.53;2.13;;;10.70;99.10;;;;;;4996257;28;20218;-84
2021/05/06 16:13:30;;;;;;;4.03;1.92;;;10.60;99.10;;;;;;4995407;28;20177;-84
2021/05/06 16:15:55;;;;;;;6.80;2.40;;;10.60;99.10;;;;;;4994567;28;20780;-85
2021/05/06 16:18:22;;;;;;;5.93;3.53;;;10.70;99.10;;;;;;4995025;28;20208;-84
2021/05/06 16:20:53;;;;;;;4.30;3.10;;;10.70;99.10;;;;;;4994441;28;20409;-84
2021/05/06 16:23:23;;;;;;;6.50;3.75;;;10.80;99.10;;;;;;4994875;28;20175;-84